• Join FlightAware (Why Join?)
  • Login
  • US Flag 
06:50PM EDT


 

Airport Tracker/Info


-or-


 

Live Flight TrackerFlight Track Log ✈ SWA225 ✈ 25-Apr-2013 ✈ KSNA - KOAK

Flight Track Log - Related Links

Times and Time Zones

All times are in EDT time to prevent confusion due to time zone crossing. See the SWA225 flight status page for this flight to view local times or setup timezone preferences in your user account.

Time Position Orientation Groundspeed Altitude Reporting Facility
EDT Latitude Longitude Course Direction KTS MPH feet Rate Location/Type
10:06AM 33.6464 -117.8850 320° Northwest 136 157 1,700  Level Los Angeles Center
10:06AM 33.6333 -117.8833 174° South 148 170 2,600 1,920 Climbing Southern California TRACON
10:07AM 33.5967 -117.8958 196° South 148 170 3,700 2,460 Climbing Los Angeles Center
10:08AM 33.5406 -117.9197 200° South 206 237 7,000 3,060 Climbing Los Angeles Center
10:09AM 33.5111 -118.0064 248° West 276 318 10,000 2,940 Climbing Los Angeles Center
10:10AM 33.4764 -118.1069 248° West 317 365 13,100 3,240 Climbing Los Angeles Center
10:11AM 33.4403 -118.2192 249° West 350 403 16,700 3,120 Climbing Los Angeles Center
10:12AM 34.1366 -118.3346 320° Northwest  Level Estimated
10:12AM 33.4158 -118.3397 256° West 372 428 19,600  Level Los Angeles Center
10:13AM 33.4842 -118.4211 315° West 364 419 22,800 2,700 Climbing Los Angeles Center
10:14AM 33.5928 -118.4253 358° North 387 445 25,300 2,220 Climbing Los Angeles Center
10:15AM 33.7075 -118.4281 359° North 400 460 27,400 1,980 Climbing Los Angeles Center
10:16AM 33.8306 -118.4308 359° North 418 481 29,400 1,920 Climbing Los Angeles Center
10:18AM 33.9517 -118.4442 355° North 439 505 31,400 2,100 Climbing Los Angeles Center
10:19AM 34.0819 -118.5050 339° North 420 483 33,800 1,980 Climbing Los Angeles Center
10:20AM 34.1908 -118.5597 337° Northwest 424 488 35,600 1,020 Climbing Los Angeles Center
10:21AM 34.2992 -118.6122 338° Northwest 421 484 36,000 480 Climbing Los Angeles Center
10:22AM 34.4089 -118.6656 338° Northwest 423 487 36,600 960 Climbing Los Angeles Center
10:23AM 34.5169 -118.7197 338° Northwest 421 484 38,000 660 Climbing Los Angeles Center
10:24AM 34.6269 -118.7747 338° Northwest 425 489 38,000  Level Los Angeles Center
10:25AM 34.7364 -118.8294 338° Northwest 428 493 38,000  Level Los Angeles Center
10:26AM 34.8558 -118.9147 330° Northwest 417 480 38,000  Level Los Angeles Center
10:27AM 34.9347 -118.9903 322° Northwest 409 471 38,000  Level Los Angeles Center
10:28AM 35.0236 -119.0767 321° Northwest 409 471 38,000  Level Los Angeles Center
10:29AM 35.1317 -119.1811 322° Northwest 413 475 38,000  Level Los Angeles Center
10:30AM 35.2197 -119.2683 321° Northwest 410 472 38,000  Level Los Angeles Center
10:31AM 35.3097 -119.3550 322° Northwest 412 474 38,000  Level Los Angeles Center
10:32AM 35.3817 -119.4267 321° Northwest 416 479 38,000  Level Los Angeles Center
10:32AM 35.4319 -119.4786 320° Northwest 416 479 38,000  Level Oakland Center
10:33AM 35.5233 -119.5672 322° Northwest 419 482 38,000  Level Oakland Center
10:34AM 35.6125 -119.6575 321° Northwest 419 482 38,000  Level Oakland Center
10:35AM 35.7036 -119.7469 321° Northwest 422 486 38,000  Level Oakland Center
10:36AM 35.7942 -119.8394 320° Northwest 427 491 38,000  Level Oakland Center
10:37AM 35.8836 -119.9286 321° Northwest 422 486 38,000  Level Oakland Center
10:38AM 35.9911 -120.0381 321° Northwest 423 487 38,000  Level Oakland Center
10:39AM 36.0819 -120.1283 321° Northwest 422 486 38,000 -300 Level Oakland Center
10:40AM 36.1722 -120.2192 321° Northwest 420 483 37,400 -1,620 Descending Oakland Center
10:41AM 36.2608 -120.3097 321° Northwest 416 479 34,700 -2,340 Descending Oakland Center
10:42AM 36.3475 -120.3986 320° Northwest 407 468 32,700 -1,920 Descending Oakland Center
10:44AM 36.4306 -120.4844 320° Northwest 391 450 30,800 -1,920 Descending Oakland Center
10:45AM 36.5106 -120.5658 321° Northwest 376 433 28,900 -1,800 Descending Oakland Center
10:46AM 36.5875 -120.6492 319° Northwest 369 425 27,200 -1,320 Descending Oakland Center
10:47AM 36.6875 -120.7508 321° Northwest 387 445 26,300 -1,140 Descending Oakland Center
10:48AM 36.7711 -120.8414 319° Northwest 398 458 24,900 -1,860 Descending Oakland Center
10:49AM 36.8503 -120.9306 318° Northwest 386 444 22,600 -2,340 Descending Oakland Center
10:50AM 36.9283 -121.0183 318° Northwest 379 436 20,200 -2,280 Descending Oakland Center
10:51AM 37.0025 -121.1036 317° Northwest 365 420 18,000 -2,220 Descending Oakland Center
10:52AM 37.0811 -121.1950 317° Northwest 357 411 15,700 -2,040 Descending Oakland Center
10:53AM 37.1453 -121.2700 317° Northwest 346 398 13,900 -1,860 Descending Oakland Center
10:54AM 37.2125 -121.3481 317° Northwest 331 381 12,000 -1,860 Descending Oakland Center
10:55AM 37.2761 -121.4236 317° Northwest 316 364 10,200 -1,380 Descending Oakland Center
10:56AM 37.3364 -121.4931 318° Northwest 298 343 9,200 -1,260 Descending Oakland Center
10:57AM 37.3956 -121.5628 317° Northwest 276 318 7,700 -1,020 Descending Oakland Center
10:58AM 37.4464 -121.6219 317° Northwest 253 291 7,200 -780 Descending Oakland Center
10:59AM 37.4919 -121.6758 317° Northwest 232 267 6,200 -660 Descending Oakland Center
11:00AM 37.5500 -121.7333 322° Northwest 227 261 6,000 -480 Descending Northern Cal TRACON
11:01AM 37.5667 -121.8000 288° West 233 268 5,300 -540 Descending Northern Cal TRACON
11:02AM 37.5500 -121.8667 253° West 227 261 5,000 -720 Descending Northern Cal TRACON
11:03AM 37.5333 -121.9500 256° West 228 262 4,000 -540 Descending Northern Cal TRACON
11:04AM 37.5667 -122.0000 310° West 171 197 4,000 -300 Level Northern Cal TRACON
11:05AM 37.5833 -122.0500 293° West 136 157 3,500 -660 Descending Northern Cal TRACON
11:06AM 37.6167 -122.0833 322° Northwest 140 161 2,700 -780 Descending Northern Cal TRACON
11:07AM 37.6333 -122.1167 302° West 135 155 2,000 -720 Descending Northern Cal TRACON
11:07AM 37.6406 -122.1233 324° Northwest 138 159 1,800 -780 Descending Oakland Center
11:08AM 37.6647 -122.1594 310° West 136 157 1,000 -720 Descending Oakland Center
11:09AM 37.6878 -122.1936 310° West 132 152 400 9,300 Descending Oakland Center
11:10AM 37.7094 -122.2258 310° West 127 146 20,000 19,260 Climbing Oakland Center
11:12AM 37.7167 -122.2167 270° West  Level FlightAware Approximate
11:19AM 37.7213 -122.2207 270° West  Level Estimated